sensor_id;sensor_type;location;lat;lon;timestamp;P1;durP1;ratioP1;P2;durP2;ratioP2
17253;SDS011;32542;52.832;13.816;2022-10-03T00:01:45;3.20;;;1.60;;
17253;SDS011;32542;52.832;13.816;2022-10-03T00:05:03;3.70;;;1.50;;
17253;SDS011;32542;52.832;13.816;2022-10-03T00:08:16;1.80;;;1.38;;
17253;SDS011;32542;52.832;13.816;2022-10-03T00:11:36;3.60;;;1.75;;
17253;SDS011;32542;52.832;13.816;2022-10-03T00:14:50;2.45;;;1.42;;
17253;SDS011;32542;52.832;13.816;2022-10-03T00:18:05;3.88;;;1.20;;
17253;SDS011;32542;52.832;13.816;2022-10-03T00:21:34;3.25;;;1.60;;
17253;SDS011;32542;52.832;13.816;2022-10-03T00:24:52;2.65;;;1.40;;
17253;SDS011;32542;52.832;13.816;2022-10-03T00:28:06;2.45;;;1.40;;
17253;SDS011;32542;52.832;13.816;2022-10-03T00:31:15;3.88;;;1.38;;
17253;SDS011;32542;52.832;13.816;2022-10-03T00:34:26;1.88;;;1.33;;
17253;SDS011;32542;52.832;13.816;2022-10-03T00:37:40;2.42;;;1.50;;
17253;SDS011;32542;52.832;13.816;2022-10-03T00:41:02;2.92;;;1.40;;
17253;SDS011;32542;52.832;13.816;2022-10-03T00:48:15;2.67;;;1.30;;
17253;SDS011;32542;52.832;13.816;2022-10-03T00:51:44;2.88;;;1.38;;
17253;SDS011;32542;52.832;13.816;2022-10-03T00:55:01;2.72;;;1.40;;
17253;SDS011;32542;52.832;13.816;2022-10-03T00:58:25;3.78;;;1.80;;
17253;SDS011;32542;52.832;13.816;2022-10-03T01:01:42;3.83;;;1.52;;
17253;SDS011;32542;52.832;13.816;2022-10-03T01:04:48;2.70;;;1.20;;
17253;SDS011;32542;52.832;13.816;2022-10-03T01:08:04;1.73;;;1.20;;
17253;SDS011;32542;52.832;13.816;2022-10-03T01:11:36;3.60;;;1.48;;
17253;SDS011;32542;52.832;13.816;2022-10-03T01:14:59;3.80;;;1.63;;
17253;SDS011;32542;52.832;13.816;2022-10-03T01:18:14;2.80;;;1.33;;
17253;SDS011;32542;52.832;13.816;2022-10-03T01:21:29;3.83;;;1.40;;
17253;SDS011;32542;52.832;13.816;2022-10-03T01:24:55;2.40;;;1.40;;
17253;SDS011;32542;52.832;13.816;2022-10-03T01:28:02;2.67;;;1.50;;
17253;SDS011;32542;52.832;13.816;2022-10-03T01:31:37;2.53;;;1.17;;
17253;SDS011;32542;52.832;13.816;2022-10-03T01:34:46;2.67;;;1.60;;
17253;SDS011;32542;52.832;13.816;2022-10-03T01:38:04;2.53;;;1.25;;
17253;SDS011;32542;52.832;13.816;2022-10-03T01:41:18;2.45;;;1.60;;
17253;SDS011;32542;52.832;13.816;2022-10-03T01:44:35;1.90;;;1.40;;
17253;SDS011;32542;52.832;13.816;2022-10-03T01:47:48;3.17;;;1.42;;
17253;SDS011;32542;52.832;13.816;2022-10-03T01:50:58;3.47;;;1.40;;
17253;SDS011;32542;52.832;13.816;2022-10-03T01:54:10;2.90;;;1.20;;
17253;SDS011;32542;52.832;13.816;2022-10-03T01:57:24;3.53;;;1.50;;
17253;SDS011;32542;52.832;13.816;2022-10-03T02:00:41;2.42;;;1.30;;
17253;SDS011;32542;52.832;13.816;2022-10-03T02:03:51;2.35;;;1.25;;
17253;SDS011;32542;52.832;13.816;2022-10-03T02:07:00;3.30;;;1.25;;
17253;SDS011;32542;52.832;13.816;2022-10-03T02:10:12;3.85;;;1.38;;
17253;SDS011;32542;52.832;13.816;2022-10-03T02:13:25;2.40;;;1.48;;
17253;SDS011;32542;52.832;13.816;2022-10-03T02:16:38;2.92;;;1.42;;
17253;SDS011;32542;52.832;13.816;2022-10-03T02:19:47;3.67;;;1.30;;
17253;SDS011;32542;52.832;13.816;2022-10-03T02:22:57;3.20;;;1.52;;
17253;SDS011;32542;52.832;13.816;2022-10-03T02:26:02;6.30;;;1.42;;
17253;SDS011;32542;52.832;13.816;2022-10-03T02:29:29;1.92;;;1.33;;
17253;SDS011;32542;52.832;13.816;2022-10-03T02:43:55;3.03;;;1.25;;
17253;SDS011;32542;52.832;13.816;2022-10-03T02:47:23;3.15;;;1.40;;
17253;SDS011;32542;52.832;13.816;2022-10-03T02:50:51;2.30;;;1.25;;
17253;SDS011;32542;52.832;13.816;2022-10-03T02:54:19;2.60;;;1.20;;
17253;SDS011;32542;52.832;13.816;2022-10-03T03:01:41;2.00;;;1.33;;
17253;SDS011;32542;52.832;13.816;2022-10-03T03:12:27;2.20;;;1.20;;
17253;SDS011;32542;52.832;13.816;2022-10-03T03:15:53;3.65;;;1.42;;
17253;SDS011;32542;52.832;13.816;2022-10-03T03:19:21;2.13;;;1.00;;
17253;SDS011;32542;52.832;13.816;2022-10-03T03:22:47;2.63;;;1.20;;
17253;SDS011;32542;52.832;13.816;2022-10-03T03:26:07;2.15;;;1.35;;
17253;SDS011;32542;52.832;13.816;2022-10-03T03:29:27;2.50;;;1.23;;
17253;SDS011;32542;52.832;13.816;2022-10-03T03:32:42;1.63;;;1.15;;
17253;SDS011;32542;52.832;13.816;2022-10-03T03:35:59;2.78;;;1.38;;
17253;SDS011;32542;52.832;13.816;2022-10-03T03:39:14;2.45;;;1.10;;
17253;SDS011;32542;52.832;13.816;2022-10-03T03:42:41;2.40;;;1.58;;
17253;SDS011;32542;52.832;13.816;2022-10-03T03:46:02;2.03;;;1.20;;
17253;SDS011;32542;52.832;13.816;2022-10-03T03:49:29;3.85;;;1.25;;
17253;SDS011;32542;52.832;13.816;2022-10-03T03:52:45;3.08;;;1.40;;
17253;SDS011;32542;52.832;13.816;2022-10-03T03:56:08;2.67;;;1.40;;
17253;SDS011;32542;52.832;13.816;2022-10-03T03:59:30;3.20;;;1.25;;
17253;SDS011;32542;52.832;13.816;2022-10-03T04:02:54;1.63;;;1.25;;
17253;SDS011;32542;52.832;13.816;2022-10-03T04:06:10;2.53;;;1.10;;
17253;SDS011;32542;52.832;13.816;2022-10-03T04:09:30;2.00;;;1.15;;
17253;SDS011;32542;52.832;13.816;2022-10-03T04:12:59;3.00;;;1.38;;
17253;SDS011;32542;52.832;13.816;2022-10-03T04:16:31;3.47;;;1.38;;
17253;SDS011;32542;52.832;13.816;2022-10-03T04:20:07;2.13;;;1.15;;
17253;SDS011;32542;52.832;13.816;2022-10-03T04:23:23;2.92;;;1.10;;
17253;SDS011;32542;52.832;13.816;2022-10-03T04:26:40;1.10;;;1.00;;
17253;SDS011;32542;52.832;13.816;2022-10-03T04:30:02;1.77;;;1.20;;
17253;SDS011;32542;52.832;13.816;2022-10-03T04:33:15;4.05;;;1.25;;
17253;SDS011;32542;52.832;13.816;2022-10-03T04:36:43;3.60;;;1.55;;
17253;SDS011;32542;52.832;13.816;2022-10-03T04:40:05;2.75;;;1.17;;
17253;SDS011;32542;52.832;13.816;2022-10-03T04:43:23;2.55;;;1.38;;
17253;SDS011;32542;52.832;13.816;2022-10-03T04:46:38;1.52;;;1.00;;
17253;SDS011;32542;52.832;13.816;2022-10-03T04:49:50;2.40;;;1.15;;
17253;SDS011;32542;52.832;13.816;2022-10-03T04:53:09;2.50;;;1.35;;
17253;SDS011;32542;52.832;13.816;2022-10-03T04:59:47;2.25;;;1.20;;
17253;SDS011;32542;52.832;13.816;2022-10-03T05:02:56;2.20;;;1.10;;
17253;SDS011;32542;52.832;13.816;2022-10-03T05:06:06;2.95;;;1.25;;
17253;SDS011;32542;52.832;13.816;2022-10-03T05:09:23;1.50;;;1.10;;
17253;SDS011;32542;52.832;13.816;2022-10-03T05:12:37;2.92;;;1.20;;
17253;SDS011;32542;52.832;13.816;2022-10-03T05:15:48;2.55;;;1.40;;
17253;SDS011;32542;52.832;13.816;2022-10-03T05:19:00;1.63;;;1.20;;
17253;SDS011;32542;52.832;13.816;2022-10-03T05:22:25;3.47;;;1.08;;
17253;SDS011;32542;52.832;13.816;2022-10-03T05:25:45;1.92;;;1.10;;
17253;SDS011;32542;52.832;13.816;2022-10-03T05:28:56;1.38;;;1.00;;
17253;SDS011;32542;52.832;13.816;2022-10-03T05:32:11;2.22;;;1.10;;
17253;SDS011;32542;52.832;13.816;2022-10-03T05:35:23;2.30;;;1.17;;
17253;SDS011;32542;52.832;13.816;2022-10-03T05:38:38;2.67;;;1.10;;
17253;SDS011;32542;52.832;13.816;2022-10-03T05:42:22;2.20;;;1.30;;
17253;SDS011;32542;52.832;13.816;2022-10-03T05:45:40;1.83;;;1.00;;
17253;SDS011;32542;52.832;13.816;2022-10-03T05:48:53;2.00;;;1.42;;
17253;SDS011;32542;52.832;13.816;2022-10-03T05:52:12;2.08;;;1.17;;
17253;SDS011;32542;52.832;13.816;2022-10-03T05:59:20;1.27;;;1.08;;
17253;SDS011;32542;52.832;13.816;2022-10-03T06:02:53;2.53;;;1.15;;
17253;SDS011;32542;52.832;13.816;2022-10-03T06:06:17;2.00;;;1.10;;
17253;SDS011;32542;52.832;13.816;2022-10-03T06:09:39;2.85;;;1.10;;
17253;SDS011;32542;52.832;13.816;2022-10-03T06:13:02;1.55;;;1.30;;
17253;SDS011;32542;52.832;13.816;2022-10-03T06:16:17;2.13;;;1.05;;
17253;SDS011;32542;52.832;13.816;2022-10-03T06:19:31;1.17;;;0.93;;
17253;SDS011;32542;52.832;13.816;2022-10-03T06:22:49;3.50;;;1.15;;
17253;SDS011;32542;52.832;13.816;2022-10-03T06:30:03;2.13;;;0.93;;
17253;SDS011;32542;52.832;13.816;2022-10-03T06:44:20;2.40;;;1.50;;
17253;SDS011;32542;52.832;13.816;2022-10-03T06:47:37;1.90;;;1.10;;
17253;SDS011;32542;52.832;13.816;2022-10-03T06:50:55;2.60;;;1.40;;
17253;SDS011;32542;52.832;13.816;2022-10-03T06:54:23;2.67;;;1.50;;
17253;SDS011;32542;52.832;13.816;2022-10-03T06:58:12;2.47;;;1.25;;
17253;SDS011;32542;52.832;13.816;2022-10-03T07:05:22;1.90;;;1.35;;
17253;SDS011;32542;52.832;13.816;2022-10-03T07:12:32;1.95;;;1.70;;
17253;SDS011;32542;52.832;13.816;2022-10-03T07:19:40;3.20;;;2.08;;
17253;SDS011;32542;52.832;13.816;2022-10-03T07:26:55;3.08;;;1.83;;
17253;SDS011;32542;52.832;13.816;2022-10-03T07:30:10;3.67;;;1.80;;
17253;SDS011;32542;52.832;13.816;2022-10-03T07:37:17;2.97;;;1.90;;
17253;SDS011;32542;52.832;13.816;2022-10-03T07:44:29;2.65;;;1.52;;
17253;SDS011;32542;52.832;13.816;2022-10-03T07:47:59;3.42;;;1.67;;
17253;SDS011;32542;52.832;13.816;2022-10-03T07:51:15;2.25;;;1.60;;
17253;SDS011;32542;52.832;13.816;2022-10-03T07:54:36;2.28;;;1.45;;
17253;SDS011;32542;52.832;13.816;2022-10-03T07:58:13;2.75;;;1.50;;
17253;SDS011;32542;52.832;13.816;2022-10-03T08:01:51;2.95;;;1.73;;
17253;SDS011;32542;52.832;13.816;2022-10-03T08:05:05;3.67;;;1.63;;
17253;SDS011;32542;52.832;13.816;2022-10-03T08:08:41;1.80;;;1.50;;
17253;SDS011;32542;52.832;13.816;2022-10-03T08:15:45;2.70;;;1.95;;
17253;SDS011;32542;52.832;13.816;2022-10-03T08:19:15;4.45;;;1.77;;
17253;SDS011;32542;52.832;13.816;2022-10-03T08:22:30;3.17;;;1.95;;
17253;SDS011;32542;52.832;13.816;2022-10-03T08:25:50;3.08;;;2.10;;
17253;SDS011;32542;52.832;13.816;2022-10-03T08:29:07;3.33;;;2.25;;
17253;SDS011;32542;52.832;13.816;2022-10-03T08:36:04;5.70;;;3.60;;
17253;SDS011;32542;52.832;13.816;2022-10-03T08:39:23;6.82;;;4.15;;
17253;SDS011;32542;52.832;13.816;2022-10-03T08:42:52;5.80;;;3.53;;
17253;SDS011;32542;52.832;13.816;2022-10-03T08:46:17;3.20;;;2.35;;
17253;SDS011;32542;52.832;13.816;2022-10-03T08:50:01;5.50;;;2.38;;
17253;SDS011;32542;52.832;13.816;2022-10-03T08:57:04;6.43;;;3.55;;
17253;SDS011;32542;52.832;13.816;2022-10-03T09:00:17;4.93;;;3.50;;
17253;SDS011;32542;52.832;13.816;2022-10-03T09:03:34;5.68;;;3.95;;
17253;SDS011;32542;52.832;13.816;2022-10-03T09:07:05;8.95;;;3.85;;
17253;SDS011;32542;52.832;13.816;2022-10-03T09:10:25;5.88;;;2.78;;
17253;SDS011;32542;52.832;13.816;2022-10-03T09:13:48;6.18;;;2.72;;
17253;SDS011;32542;52.832;13.816;2022-10-03T09:21:11;4.05;;;2.85;;
17253;SDS011;32542;52.832;13.816;2022-10-03T09:32:02;4.13;;;2.45;;
17253;SDS011;32542;52.832;13.816;2022-10-03T09:35:35;4.82;;;2.72;;
17253;SDS011;32542;52.832;13.816;2022-10-03T09:42:28;4.60;;;2.70;;
17253;SDS011;32542;52.832;13.816;2022-10-03T09:49:43;4.10;;;2.80;;
17253;SDS011;32542;52.832;13.816;2022-10-03T09:57:05;3.72;;;2.25;;
17253;SDS011;32542;52.832;13.816;2022-10-03T10:00:24;4.10;;;2.45;;
17253;SDS011;32542;52.832;13.816;2022-10-03T10:14:41;10.07;;;2.75;;
17253;SDS011;32542;52.832;13.816;2022-10-03T10:18:19;10.68;;;2.13;;
17253;SDS011;32542;52.832;13.816;2022-10-03T10:21:49;11.45;;;2.08;;
17253;SDS011;32542;52.832;13.816;2022-10-03T10:25:12;10.77;;;2.50;;
17253;SDS011;32542;52.832;13.816;2022-10-03T10:28:30;9.77;;;2.22;;
17253;SDS011;32542;52.832;13.816;2022-10-03T10:35:46;12.23;;;2.30;;
17253;SDS011;32542;52.832;13.816;2022-10-03T10:57:53;9.02;;;2.42;;
17253;SDS011;32542;52.832;13.816;2022-10-03T11:20:27;10.05;;;2.38;;
17253;SDS011;32542;52.832;13.816;2022-10-03T11:27:46;10.80;;;2.65;;
17253;SDS011;32542;52.832;13.816;2022-10-03T11:35:20;15.43;;;6.95;;
17253;SDS011;32542;52.832;13.816;2022-10-03T11:38:50;13.88;;;5.75;;
17253;SDS011;32542;52.832;13.816;2022-10-03T11:42:05;11.38;;;5.60;;
17253;SDS011;32542;52.832;13.816;2022-10-03T11:45:22;12.07;;;5.07;;
17253;SDS011;32542;52.832;13.816;2022-10-03T11:48:32;18.08;;;4.70;;
17253;SDS011;32542;52.832;13.816;2022-10-03T11:51:43;13.85;;;4.15;;
17253;SDS011;32542;52.832;13.816;2022-10-03T11:54:59;16.25;;;4.45;;
17253;SDS011;32542;52.832;13.816;2022-10-03T11:58:14;13.63;;;4.63;;
17253;SDS011;32542;52.832;13.816;2022-10-03T12:01:43;12.77;;;4.28;;
17253;SDS011;32542;52.832;13.816;2022-10-03T12:04:58;12.52;;;4.18;;
17253;SDS011;32542;52.832;13.816;2022-10-03T12:08:13;8.05;;;4.05;;
17253;SDS011;32542;52.832;13.816;2022-10-03T12:11:44;18.77;;;3.85;;
17253;SDS011;32542;52.832;13.816;2022-10-03T12:15:00;11.75;;;4.00;;
17253;SDS011;32542;52.832;13.816;2022-10-03T12:18:18;9.98;;;3.63;;
17253;SDS011;32542;52.832;13.816;2022-10-03T12:21:33;11.55;;;4.22;;
17253;SDS011;32542;52.832;13.816;2022-10-03T12:24:45;12.98;;;3.70;;
17253;SDS011;32542;52.832;13.816;2022-10-03T12:27:53;10.20;;;3.97;;
17253;SDS011;32542;52.832;13.816;2022-10-03T12:31:04;13.52;;;3.53;;
17253;SDS011;32542;52.832;13.816;2022-10-03T12:34:19;13.57;;;4.13;;
17253;SDS011;32542;52.832;13.816;2022-10-03T12:37:42;8.35;;;3.70;;
17253;SDS011;32542;52.832;13.816;2022-10-03T12:40:53;10.73;;;3.97;;
17253;SDS011;32542;52.832;13.816;2022-10-03T12:44:11;11.98;;;3.47;;
17253;SDS011;32542;52.832;13.816;2022-10-03T12:47:29;9.88;;;3.97;;
17253;SDS011;32542;52.832;13.816;2022-10-03T12:50:58;11.30;;;3.72;;
17253;SDS011;32542;52.832;13.816;2022-10-03T12:54:06;10.10;;;4.10;;
17253;SDS011;32542;52.832;13.816;2022-10-03T13:00:52;7.30;;;3.58;;
17253;SDS011;32542;52.832;13.816;2022-10-03T13:04:05;12.35;;;4.90;;
17253;SDS011;32542;52.832;13.816;2022-10-03T13:07:23;7.25;;;3.47;;
17253;SDS011;32542;52.832;13.816;2022-10-03T13:10:36;11.75;;;3.53;;
17253;SDS011;32542;52.832;13.816;2022-10-03T13:13:48;14.93;;;4.15;;
17253;SDS011;32542;52.832;13.816;2022-10-03T13:17:07;8.45;;;4.45;;
17253;SDS011;32542;52.832;13.816;2022-10-03T13:20:22;9.15;;;3.72;;
17253;SDS011;32542;52.832;13.816;2022-10-03T13:23:32;7.90;;;3.78;;
17253;SDS011;32542;52.832;13.816;2022-10-03T13:26:47;9.15;;;4.18;;
17253;SDS011;32542;52.832;13.816;2022-10-03T13:30:02;11.27;;;3.80;;
17253;SDS011;32542;52.832;13.816;2022-10-03T13:33:09;11.57;;;3.97;;
17253;SDS011;32542;52.832;13.816;2022-10-03T13:36:18;8.48;;;4.32;;
17253;SDS011;32542;52.832;13.816;2022-10-03T13:39:28;9.73;;;3.85;;
17253;SDS011;32542;52.832;13.816;2022-10-03T13:42:45;13.20;;;4.22;;
17253;SDS011;32542;52.832;13.816;2022-10-03T13:45:55;9.32;;;3.72;;
17253;SDS011;32542;52.832;13.816;2022-10-03T13:49:00;10.73;;;4.00;;
17253;SDS011;32542;52.832;13.816;2022-10-03T13:52:13;11.88;;;4.55;;
17253;SDS011;32542;52.832;13.816;2022-10-03T13:58:47;8.27;;;4.80;;
17253;SDS011;32542;52.832;13.816;2022-10-03T14:01:58;9.65;;;4.20;;
17253;SDS011;32542;52.832;13.816;2022-10-03T14:05:17;9.55;;;4.60;;
17253;SDS011;32542;52.832;13.816;2022-10-03T14:08:45;8.23;;;4.57;;
17253;SDS011;32542;52.832;13.816;2022-10-03T14:12:03;7.88;;;4.20;;
17253;SDS011;32542;52.832;13.816;2022-10-03T14:15:35;10.40;;;4.28;;
17253;SDS011;32542;52.832;13.816;2022-10-03T14:18:49;10.10;;;4.60;;
17253;SDS011;32542;52.832;13.816;2022-10-03T14:22:00;8.73;;;4.72;;
17253;SDS011;32542;52.832;13.816;2022-10-03T14:25:16;8.57;;;4.80;;
17253;SDS011;32542;52.832;13.816;2022-10-03T14:28:24;8.48;;;4.80;;
17253;SDS011;32542;52.832;13.816;2022-10-03T14:31:34;8.23;;;4.47;;
17253;SDS011;32542;52.832;13.816;2022-10-03T14:34:47;8.93;;;4.70;;
17253;SDS011;32542;52.832;13.816;2022-10-03T14:37:56;11.68;;;4.72;;
17253;SDS011;32542;52.832;13.816;2022-10-03T14:41:08;9.43;;;4.22;;
17253;SDS011;32542;52.832;13.816;2022-10-03T14:44:19;7.97;;;4.90;;
17253;SDS011;32542;52.832;13.816;2022-10-03T14:47:23;8.05;;;4.70;;
17253;SDS011;32542;52.832;13.816;2022-10-03T14:50:28;9.90;;;4.70;;
17253;SDS011;32542;52.832;13.816;2022-10-03T14:53:33;8.60;;;4.57;;
17253;SDS011;32542;52.832;13.816;2022-10-03T14:56:40;8.52;;;5.05;;
17253;SDS011;32542;52.832;13.816;2022-10-03T14:59:47;10.25;;;5.38;;
17253;SDS011;32542;52.832;13.816;2022-10-03T15:02:58;8.95;;;5.13;;
17253;SDS011;32542;52.832;13.816;2022-10-03T15:06:29;10.38;;;5.80;;
17253;SDS011;32542;52.832;13.816;2022-10-03T15:09:40;7.60;;;4.95;;
17253;SDS011;32542;52.832;13.816;2022-10-03T15:12:50;10.55;;;6.28;;
17253;SDS011;32542;52.832;13.816;2022-10-03T15:15:57;8.70;;;5.80;;
17253;SDS011;32542;52.832;13.816;2022-10-03T15:19:04;9.05;;;5.45;;
17253;SDS011;32542;52.832;13.816;2022-10-03T15:22:20;9.48;;;5.78;;
17253;SDS011;32542;52.832;13.816;2022-10-03T15:25:30;9.57;;;5.35;;
17253;SDS011;32542;52.832;13.816;2022-10-03T15:28:38;10.45;;;5.43;;
17253;SDS011;32542;52.832;13.816;2022-10-03T15:31:45;9.55;;;5.72;;
17253;SDS011;32542;52.832;13.816;2022-10-03T15:34:51;11.50;;;5.88;;
17253;SDS011;32542;52.832;13.816;2022-10-03T15:38:01;10.45;;;5.78;;
17253;SDS011;32542;52.832;13.816;2022-10-03T15:41:12;9.43;;;6.00;;
17253;SDS011;32542;52.832;13.816;2022-10-03T15:44:18;14.60;;;6.10;;
17253;SDS011;32542;52.832;13.816;2022-10-03T15:47:27;9.80;;;5.93;;
17253;SDS011;32542;52.832;13.816;2022-10-03T15:50:33;12.00;;;6.00;;
17253;SDS011;32542;52.832;13.816;2022-10-03T15:53:42;11.02;;;5.78;;
17253;SDS011;32542;52.832;13.816;2022-10-03T15:56:50;10.93;;;5.35;;
17253;SDS011;32542;52.832;13.816;2022-10-03T15:59:57;8.70;;;6.40;;
17253;SDS011;32542;52.832;13.816;2022-10-03T16:03:10;11.88;;;6.10;;
17253;SDS011;32542;52.832;13.816;2022-10-03T16:06:16;9.77;;;6.10;;
17253;SDS011;32542;52.832;13.816;2022-10-03T16:09:25;8.52;;;6.22;;
17253;SDS011;32542;52.832;13.816;2022-10-03T16:12:36;11.70;;;5.85;;
17253;SDS011;32542;52.832;13.816;2022-10-03T16:16:07;11.45;;;7.07;;
17253;SDS011;32542;52.832;13.816;2022-10-03T16:19:23;9.88;;;6.25;;
17253;SDS011;32542;52.832;13.816;2022-10-03T16:22:33;7.88;;;5.47;;
17253;SDS011;32542;52.832;13.816;2022-10-03T16:25:44;10.98;;;6.13;;
17253;SDS011;32542;52.832;13.816;2022-10-03T16:28:51;8.48;;;5.70;;
17253;SDS011;32542;52.832;13.816;2022-10-03T16:32:03;9.60;;;6.68;;
17253;SDS011;32542;52.832;13.816;2022-10-03T16:35:12;10.35;;;6.40;;
17253;SDS011;32542;52.832;13.816;2022-10-03T16:38:24;9.40;;;6.18;;
17253;SDS011;32542;52.832;13.816;2022-10-03T16:41:33;9.95;;;6.68;;
17253;SDS011;32542;52.832;13.816;2022-10-03T16:44:46;8.38;;;5.90;;
17253;SDS011;32542;52.832;13.816;2022-10-03T16:47:52;9.45;;;6.05;;
17253;SDS011;32542;52.832;13.816;2022-10-03T16:51:16;9.02;;;5.60;;
17253;SDS011;32542;52.832;13.816;2022-10-03T16:54:21;9.07;;;6.15;;
17253;SDS011;32542;52.832;13.816;2022-10-03T16:57:28;9.48;;;6.22;;
17253;SDS011;32542;52.832;13.816;2022-10-03T17:00:40;10.95;;;5.22;;
17253;SDS011;32542;52.832;13.816;2022-10-03T17:04:14;8.18;;;5.60;;
17253;SDS011;32542;52.832;13.816;2022-10-03T17:07:22;8.98;;;5.28;;
17253;SDS011;32542;52.832;13.816;2022-10-03T17:10:33;7.25;;;5.10;;
17253;SDS011;32542;52.832;13.816;2022-10-03T17:13:42;9.45;;;4.82;;
17253;SDS011;32542;52.832;13.816;2022-10-03T17:16:49;7.70;;;5.38;;
17253;SDS011;32542;52.832;13.816;2022-10-03T17:19:56;9.63;;;6.07;;
17253;SDS011;32542;52.832;13.816;2022-10-03T17:23:05;9.23;;;6.32;;
17253;SDS011;32542;52.832;13.816;2022-10-03T17:26:15;8.85;;;6.22;;
17253;SDS011;32542;52.832;13.816;2022-10-03T17:29:25;8.40;;;5.93;;
17253;SDS011;32542;52.832;13.816;2022-10-03T17:32:34;8.73;;;5.97;;
17253;SDS011;32542;52.832;13.816;2022-10-03T17:35:41;9.30;;;5.50;;
17253;SDS011;32542;52.832;13.816;2022-10-03T17:38:51;9.23;;;6.38;;
17253;SDS011;32542;52.832;13.816;2022-10-03T17:42:05;7.70;;;5.75;;
17253;SDS011;32542;52.832;13.816;2022-10-03T17:45:22;9.38;;;6.38;;
17253;SDS011;32542;52.832;13.816;2022-10-03T17:48:34;9.00;;;6.07;;
17253;SDS011;32542;52.832;13.816;2022-10-03T17:51:41;8.25;;;5.45;;
17253;SDS011;32542;52.832;13.816;2022-10-03T17:54:49;9.02;;;6.22;;
17253;SDS011;32542;52.832;13.816;2022-10-03T17:57:57;8.88;;;6.45;;
17253;SDS011;32542;52.832;13.816;2022-10-03T18:01:07;9.82;;;6.55;;
17253;SDS011;32542;52.832;13.816;2022-10-03T18:04:14;8.40;;;6.50;;
17253;SDS011;32542;52.832;13.816;2022-10-03T18:07:20;9.68;;;6.70;;
17253;SDS011;32542;52.832;13.816;2022-10-03T18:10:26;10.95;;;6.53;;
17253;SDS011;32542;52.832;13.816;2022-10-03T18:13:34;9.65;;;6.55;;
17253;SDS011;32542;52.832;13.816;2022-10-03T18:16:43;8.93;;;6.70;;
17253;SDS011;32542;52.832;13.816;2022-10-03T18:19:57;7.35;;;5.10;;
17253;SDS011;32542;52.832;13.816;2022-10-03T18:23:16;7.30;;;5.00;;
17253;SDS011;32542;52.832;13.816;2022-10-03T18:26:44;8.23;;;4.93;;
17253;SDS011;32542;52.832;13.816;2022-10-03T18:29:50;7.47;;;4.97;;
17253;SDS011;32542;52.832;13.816;2022-10-03T18:32:59;13.27;;;5.32;;
17253;SDS011;32542;52.832;13.816;2022-10-03T18:36:08;15.27;;;5.65;;
17253;SDS011;32542;52.832;13.816;2022-10-03T18:39:17;31.02;;;5.47;;
17253;SDS011;32542;52.832;13.816;2022-10-03T18:42:24;32.05;;;6.70;;
17253;SDS011;32542;52.832;13.816;2022-10-03T18:45:30;24.65;;;6.00;;
17253;SDS011;32542;52.832;13.816;2022-10-03T18:48:43;18.90;;;5.60;;
17253;SDS011;32542;52.832;13.816;2022-10-03T18:52:15;18.35;;;5.55;;
17253;SDS011;32542;52.832;13.816;2022-10-03T18:55:22;14.43;;;5.57;;
17253;SDS011;32542;52.832;13.816;2022-10-03T18:58:30;22.05;;;5.50;;
17253;SDS011;32542;52.832;13.816;2022-10-03T19:01:39;22.25;;;6.72;;
17253;SDS011;32542;52.832;13.816;2022-10-03T19:04:49;14.13;;;5.25;;
17253;SDS011;32542;52.832;13.816;2022-10-03T19:07:59;17.83;;;6.00;;
17253;SDS011;32542;52.832;13.816;2022-10-03T19:11:19;13.88;;;6.20;;
17253;SDS011;32542;52.832;13.816;2022-10-03T19:14:26;16.85;;;5.72;;
17253;SDS011;32542;52.832;13.816;2022-10-03T19:17:34;10.38;;;5.72;;
17253;SDS011;32542;52.832;13.816;2022-10-03T19:20:46;13.52;;;6.15;;
17253;SDS011;32542;52.832;13.816;2022-10-03T19:23:55;11.68;;;5.78;;
17253;SDS011;32542;52.832;13.816;2022-10-03T19:27:03;12.82;;;5.63;;
17253;SDS011;32542;52.832;13.816;2022-10-03T19:30:16;11.90;;;5.45;;
17253;SDS011;32542;52.832;13.816;2022-10-03T19:33:21;12.82;;;5.57;;
17253;SDS011;32542;52.832;13.816;2022-10-03T19:36:30;13.90;;;5.63;;
17253;SDS011;32542;52.832;13.816;2022-10-03T19:39:36;14.73;;;6.00;;
17253;SDS011;32542;52.832;13.816;2022-10-03T19:42:40;13.82;;;5.70;;
17253;SDS011;32542;52.832;13.816;2022-10-03T19:45:46;13.88;;;6.13;;
17253;SDS011;32542;52.832;13.816;2022-10-03T19:48:54;11.27;;;6.35;;
17253;SDS011;32542;52.832;13.816;2022-10-03T19:52:12;12.18;;;5.78;;
17253;SDS011;32542;52.832;13.816;2022-10-03T19:55:19;16.50;;;6.55;;
17253;SDS011;32542;52.832;13.816;2022-10-03T19:58:25;10.75;;;5.85;;
17253;SDS011;32542;52.832;13.816;2022-10-03T20:01:33;15.23;;;6.13;;
17253;SDS011;32542;52.832;13.816;2022-10-03T20:04:43;8.75;;;5.22;;
17253;SDS011;32542;52.832;13.816;2022-10-03T20:07:54;7.38;;;4.82;;
17253;SDS011;32542;52.832;13.816;2022-10-03T20:11:03;12.25;;;5.85;;
17253;SDS011;32542;52.832;13.816;2022-10-03T20:14:15;15.75;;;5.93;;
17253;SDS011;32542;52.832;13.816;2022-10-03T20:17:23;11.43;;;5.40;;
17253;SDS011;32542;52.832;13.816;2022-10-03T20:20:28;12.60;;;6.57;;
17253;SDS011;32542;52.832;13.816;2022-10-03T20:23:35;12.68;;;6.10;;
17253;SDS011;32542;52.832;13.816;2022-10-03T20:26:43;12.40;;;5.97;;
17253;SDS011;32542;52.832;13.816;2022-10-03T20:29:56;15.98;;;6.28;;
17253;SDS011;32542;52.832;13.816;2022-10-03T20:33:07;15.95;;;5.93;;
17253;SDS011;32542;52.832;13.816;2022-10-03T20:36:11;12.82;;;6.75;;
17253;SDS011;32542;52.832;13.816;2022-10-03T20:39:21;10.95;;;6.15;;
17253;SDS011;32542;52.832;13.816;2022-10-03T20:42:28;10.48;;;5.90;;
17253;SDS011;32542;52.832;13.816;2022-10-03T20:45:32;11.65;;;6.07;;
17253;SDS011;32542;52.832;13.816;2022-10-03T20:48:37;12.10;;;6.68;;
17253;SDS011;32542;52.832;13.816;2022-10-03T20:51:54;13.93;;;6.60;;
17253;SDS011;32542;52.832;13.816;2022-10-03T20:55:01;14.02;;;6.40;;
17253;SDS011;32542;52.832;13.816;2022-10-03T20:58:11;14.27;;;7.25;;
17253;SDS011;32542;52.832;13.816;2022-10-03T21:01:20;13.43;;;6.78;;
17253;SDS011;32542;52.832;13.816;2022-10-03T21:04:26;12.15;;;6.18;;
17253;SDS011;32542;52.832;13.816;2022-10-03T21:07:34;12.35;;;6.60;;
17253;SDS011;32542;52.832;13.816;2022-10-03T21:10:45;11.60;;;5.90;;
17253;SDS011;32542;52.832;13.816;2022-10-03T21:13:52;11.60;;;6.75;;
17253;SDS011;32542;52.832;13.816;2022-10-03T21:16:59;12.13;;;6.65;;
17253;SDS011;32542;52.832;13.816;2022-10-03T21:20:04;10.45;;;6.35;;
17253;SDS011;32542;52.832;13.816;2022-10-03T21:23:13;9.57;;;6.40;;
17253;SDS011;32542;52.832;13.816;2022-10-03T21:26:24;12.98;;;6.53;;
17253;SDS011;32542;52.832;13.816;2022-10-03T21:29:33;10.05;;;6.65;;
17253;SDS011;32542;52.832;13.816;2022-10-03T21:32:42;11.10;;;6.82;;
17253;SDS011;32542;52.832;13.816;2022-10-03T21:35:53;12.85;;;6.93;;
17253;SDS011;32542;52.832;13.816;2022-10-03T21:39:00;10.98;;;6.47;;
17253;SDS011;32542;52.832;13.816;2022-10-03T21:42:19;11.57;;;7.13;;
17253;SDS011;32542;52.832;13.816;2022-10-03T21:45:30;9.93;;;6.55;;
17253;SDS011;32542;52.832;13.816;2022-10-03T21:48:44;11.30;;;6.82;;
17253;SDS011;32542;52.832;13.816;2022-10-03T21:52:00;12.38;;;7.43;;
17253;SDS011;32542;52.832;13.816;2022-10-03T21:55:24;9.30;;;6.78;;
17253;SDS011;32542;52.832;13.816;2022-10-03T21:59:01;13.65;;;7.13;;
17253;SDS011;32542;52.832;13.816;2022-10-03T22:02:20;10.23;;;6.25;;
17253;SDS011;32542;52.832;13.816;2022-10-03T22:05:34;12.70;;;6.78;;
17253;SDS011;32542;52.832;13.816;2022-10-03T22:08:45;12.70;;;6.68;;